Wetterdaten: November 2008
Datum Temp. A. Feuchte A. Luftdruck Regen Wind Richtung Taupunkt Windchill Windben
01.11.2008 6,0 C 86 % 1006 hPa 0,0 l/m 0,0 km/h NO 3,7 C 6,0 C 1,0 km/h
02.11.2008 7,8 C 93 % 1013 hPa 0,0 l/m 0,0 km/h O-NO 6,7 C 7,8 C 1,0 km/h
03.11.2008 9,1 C 90 % 1012 hPa 0,0 l/m 2,0 km/h O 7,4 C 8,8 C 3,0 km/h
04.11.2008 8,9 C 89 % 1013 hPa 0,5 l/m 0,0 km/h N-NO 7,2 C 8,9 C 1,0 km/h
05.11.2008 9,4 C 86 % 1010 hPa 0,0 l/m 0,0 km/h NO 7,1 C 9,4 C 1,0 km/h
06.11.2008 8,8 C 93 % 1013 hPa 0,0 l/m 1,4 km/h N-NO 7,7 C 8,8 C 2,4 km/h
07.11.2008 7,1 C 88 % 1015 hPa 0,0 l/m 0,9 km/h N-NO 5,2 C 7,1 C 1,9 km/h
08.11.2008 6,8 C 88 % 1020 hPa 0,0 l/m 2,0 km/h NO 5,0 C 6,8 C 3,0 km/h
09.11.2008 9,4 C 81 % 1021 hPa 0,0 l/m 13,1 km/h N-NO 6,2 C 5,4 C 14,1 km/h
10.11.2008 11,7 C 71 % 1019 hPa 0,0 l/m 13,8 km/h NO 6,4 C 7,9 C 19,6 km/h
11.11.2008 9,1 C 75 % 1014 hPa 0,0 l/m 4,4 km/h NO 4,8 C 8,0 C 5,4 km/h
12.11.2008 6,8 C 81 % 1018 hPa 0,0 l/m 0,0 km/h NO 3,6 C 6,8 C 1,0 km/h
13.11.2008 3,8 C 89 % 1023 hPa 0,0 l/m 0,3 km/h O 2,0 C 3,8 C 1,4 km/h
14.11.2008 2,0 C 92 % 1026 hPa 0,0 l/m 4,3 km/h NO 0,8 C 1,7 C 5,3 km/h
15.11.2008 6,2 C 86 % 1026 hPa 0,0 l/m 4,3 km/h N 4,0 C 5,3 C 5,3 km/h
16.11.2008 8,3 C 91 % 1024 hPa 2,1 l/m 8,0 km/h W-NW 6,8 C 6,7 C 9,0 km/h
17.11.2008 2,3 C 87 % 1026 hPa 0,5 l/m 0,7 km/h N 0,3 C 2,3 C 1,7 km/h
18.11.2008 3,1 C 86 % 1013 hPa 0,0 l/m 0,5 km/h N-NW 0,9 C 3,1 C 1,5 km/h
19.11.2008 6,3 C 82 % 1016 hPa 0,5 l/m 1,4 km/h W-NW 3,4 C 6,3 C 2,4 km/h
20.11.2008 7,9 C 82 % 1009 hPa 8,8 l/m 16,3 km/h W-NW 5,0 C 2,4 C 23,0 km/h
21.11.2008 3,0 C 88 % 999 hPa 4,7 l/m 8,6 km/h W-NW 1,1 C -0,4 C 20,0 km/h
22.11.2008 -0,1 C 82 % 1001 hPa 0,5 l/m 8,0 km/h W-NW -2,8 C -1,8 C 9,0 km/h
23.11.2008 -0,5 C 80 % 999 hPa 0,5 l/m 4,3 km/h W-NW -3,5 C -2,2 C 6,3 km/h
24.11.2008 1,6 C 88 % 994 hPa 2,6 l/m 5,0 km/h W-NW -0,2 C 0,7 C 6,0 km/h
25.11.2008 -0,1 C 84 % 1011 hPa 0,0 l/m 2,4 km/h W-NW -2,5 C -0,4 C 3,4 km/h
26.11.2008 1,5 C 84 % 1024 hPa 0,0 l/m 5,0 km/h W-NW -0,9 C 0,4 C 6,0 km/h
27.11.2008 1,0 C 81 % 1018 hPa 0,0 l/m 4,0 km/h NO -2,2 C 1,0 C 4,9 km/h
28.11.2008 -0,4 C 81 % 1001 hPa 0,0 l/m 2,4 km/h N-NO -3,3 C -0,4 C 3,4 km/h
29.11.2008 -1,1 C 85 % 996 hPa 0,0 l/m 2,8 km/h NO -3,3 C -1,7 C 3,8 km/h
30.11.2008 0,4 C 85 % 997 hPa 0,0 l/m 7,1 km/h NO -2,0 C -0,3 C 8,1 km/h
Min-Datum 28.11.08 27.11.08 24.11.08 9 Tage 01.11.08 - 28.11.08 22.11.08 01.11.08
Min-Zeit 07:50 13:25 02:05 - 00:00 - 07:50 08:55 00:00
Minimum -5,2 C 59 % 988 hPa - 0,0 km/h - -6,9 C -14,5 C 1,0 km/h
Max-Datum 05.11.08 04.11.08 17.11.08 20.11.08 11.11.08 - 05.11.08 05.11.08 21.11.08
Max-Zeit 13:40 04:20 07:25 22:50 09:55 - 12:25 13:40 11:35
Maximum 17,6 C 95 % 1029 hPa 8,8 l/m 40,4 km/h
NO
- 12,1 C 17,6 C 89,2 km/h
W-NW
Durchschnitt 4,9 C 85 % 1013 hPa #20,7 l/m 4,1 km/h W-NW 2,5 C 3,9 C 5,8 km/h

Durchschnitt Minimum Temp.1,7 C
Durchschnitt Maximum Temp.8,6 C